createdAt,value
2023-04-11T00:00:21.259Z,99.90
2023-04-11T00:02:48.500Z,99.90
2023-04-11T00:05:15.620Z,99.90
2023-04-11T00:07:42.535Z,99.90
2023-04-11T00:10:09.938Z,99.90
2023-04-11T00:12:36.936Z,99.90
2023-04-11T00:15:05.131Z,99.90
2023-04-11T00:17:32.106Z,99.90
2023-04-11T00:20:01.864Z,99.90
2023-04-11T00:22:30.736Z,99.90
2023-04-11T00:24:57.662Z,99.90
2023-04-11T00:27:24.655Z,99.90
2023-04-11T00:29:52.944Z,99.90
2023-04-11T00:32:19.922Z,99.90
2023-04-11T00:34:46.826Z,99.90
2023-04-11T00:37:14.304Z,99.90
2023-04-11T00:39:41.254Z,99.90
2023-04-11T00:42:08.836Z,99.90
2023-04-11T00:44:36.520Z,99.90
2023-04-11T00:47:07.126Z,99.90
2023-04-11T00:49:34.655Z,99.90
2023-04-11T00:52:03.339Z,99.90
2023-04-11T00:54:31.626Z,99.90
2023-04-11T00:57:03.157Z,99.90
2023-04-11T00:59:31.727Z,99.90
2023-04-11T01:01:59.979Z,99.90
2023-04-11T01:04:27.192Z,99.90
2023-04-11T01:07:04.141Z,99.90
2023-04-11T01:09:34.028Z,99.90
2023-04-11T01:12:03.065Z,99.90
2023-04-11T01:14:30.341Z,99.90
2023-04-11T01:16:57.850Z,99.90
2023-04-11T01:19:26.770Z,99.90
2023-04-11T01:21:56.131Z,99.90
2023-04-11T01:24:23.185Z,99.90
2023-04-11T01:26:50.234Z,99.90
2023-04-11T01:29:17.250Z,99.90
2023-04-11T01:31:45.472Z,99.90
2023-04-11T01:34:14.711Z,99.90
2023-04-11T01:36:42.918Z,99.90
2023-04-11T01:39:10.539Z,99.90
2023-04-11T01:41:38.721Z,99.90
2023-04-11T01:44:05.907Z,99.90
2023-04-11T01:46:36.139Z,99.90
2023-04-11T01:49:03.986Z,99.90
2023-04-11T01:51:31.073Z,99.90
2023-04-11T01:53:58.114Z,99.90
2023-04-11T01:56:25.057Z,99.90
2023-04-11T01:58:52.015Z,99.90
2023-04-11T02:01:22.640Z,99.90
2023-04-11T02:03:49.852Z,99.90
2023-04-11T02:06:17.255Z,99.90
2023-04-11T02:08:44.979Z,99.90
2023-04-11T02:11:12.014Z,99.90
2023-04-11T02:13:38.972Z,99.90
2023-04-11T02:16:18.154Z,99.90
2023-04-11T02:18:45.960Z,99.90
2023-04-11T02:21:13.080Z,99.90
2023-04-11T02:23:40.035Z,99.90
2023-04-11T02:26:07.020Z,99.90
2023-04-11T02:28:34.625Z,99.90
2023-04-11T02:31:02.800Z,99.90
2023-04-11T02:33:29.938Z,99.90
2023-04-11T02:35:57.006Z,99.90
2023-04-11T02:38:24.127Z,99.90
2023-04-11T02:40:51.097Z,99.90
2023-04-11T02:43:18.036Z,99.90
2023-04-11T02:45:45.016Z,99.90
2023-04-11T02:48:11.927Z,99.90
2023-04-11T02:50:41.151Z,99.90
2023-04-11T02:53:08.265Z,99.90
2023-04-11T02:55:35.317Z,99.90
2023-04-11T02:58:02.426Z,99.90
2023-04-11T03:00:29.405Z,99.90
2023-04-11T03:02:57.245Z,99.90
2023-04-11T03:05:24.304Z,99.90
2023-04-11T03:07:51.407Z,99.90
2023-04-11T03:10:18.450Z,99.90
2023-04-11T03:12:45.467Z,99.90
2023-04-11T03:15:15.437Z,99.90
2023-04-11T03:17:42.630Z,99.90
2023-04-11T03:20:11.856Z,99.90
2023-04-11T03:22:39.253Z,99.90
2023-04-11T03:25:07.482Z,99.90
2023-04-11T03:27:34.499Z,99.90
2023-04-11T03:30:01.511Z,99.90
2023-04-11T03:32:28.634Z,99.90
2023-04-11T03:34:55.709Z,99.90
2023-04-11T03:37:22.728Z,99.90
2023-04-11T03:39:49.681Z,99.90
2023-04-11T03:42:16.729Z,99.90
2023-04-11T03:44:43.748Z,99.90
2023-04-11T03:47:10.823Z,99.90
2023-04-11T03:49:37.969Z,99.90
2023-04-11T03:52:05.852Z,99.90
2023-04-11T03:54:32.931Z,99.90
2023-04-11T03:56:59.897Z,99.90
2023-04-11T03:59:26.885Z,99.90
2023-04-11T04:01:54.152Z,99.90
2023-04-11T04:04:21.295Z,99.90
2023-04-11T04:06:48.394Z,99.90
2023-04-11T04:09:15.432Z,99.90
2023-04-11T04:11:42.424Z,99.90
2023-04-11T04:14:09.825Z,99.90
2023-04-11T04:16:39.267Z,99.90
2023-04-11T04:19:06.304Z,99.90
2023-04-11T04:21:34.305Z,99.90
2023-04-11T04:24:03.805Z,99.90
2023-04-11T04:26:31.755Z,99.90
2023-04-11T04:29:11.011Z,99.90
2023-04-11T04:31:38.930Z,99.90
2023-04-11T04:34:10.300Z,99.90
2023-04-11T04:36:48.105Z,99.90
2023-04-11T04:39:18.775Z,99.90
2023-04-11T04:41:45.789Z,99.90
2023-04-11T04:44:12.842Z,99.90
2023-04-11T04:46:39.976Z,99.90
2023-04-11T04:49:08.364Z,99.90
2023-04-11T04:51:40.350Z,99.90
2023-04-11T04:54:07.284Z,99.90
2023-04-11T04:56:34.357Z,99.90
2023-04-11T04:59:01.460Z,99.90
2023-04-11T05:01:28.429Z,99.90
2023-04-11T05:04:02.077Z,99.90
2023-04-11T05:06:32.160Z,99.90
2023-04-11T05:09:01.387Z,99.90
2023-04-11T05:11:29.271Z,99.90
2023-04-11T05:13:56.404Z,99.90
2023-04-11T05:16:23.582Z,99.90
2023-04-11T05:18:50.560Z,99.90
2023-04-11T05:21:17.545Z,99.90
2023-04-11T05:23:44.562Z,99.90
2023-04-11T05:26:12.437Z,99.90
2023-04-11T05:28:39.444Z,99.90
2023-04-11T05:31:07.096Z,99.90
2023-04-11T05:33:34.522Z,99.90
2023-04-11T05:36:01.622Z,99.90
2023-04-11T05:38:28.610Z,99.90
2023-04-11T05:40:55.593Z,99.90
2023-04-11T05:43:22.860Z,99.90
2023-04-11T05:45:50.151Z,99.90
2023-04-11T05:48:19.821Z,99.90
2023-04-11T05:50:46.981Z,99.90
2023-04-11T05:53:13.989Z,99.90
2023-04-11T05:55:40.977Z,99.90
2023-04-11T05:58:08.582Z,99.90
2023-04-11T06:00:35.560Z,99.90
2023-04-11T06:03:02.670Z,99.90
2023-04-11T06:05:31.732Z,99.90
2023-04-11T06:08:02.030Z,99.90
2023-04-11T06:10:30.078Z,99.90
2023-04-11T06:12:58.034Z,99.90
2023-04-11T06:15:26.865Z,99.90
2023-04-11T06:17:54.593Z,99.90
2023-04-11T06:20:23.071Z,99.90
2023-04-11T06:22:52.939Z,99.90
2023-04-11T06:25:21.210Z,99.90
2023-04-11T06:27:48.786Z,99.90
2023-04-11T06:30:16.012Z,99.90
2023-04-11T06:32:43.056Z,99.90
2023-04-11T06:35:10.645Z,99.90
2023-04-11T06:37:37.985Z,99.90
2023-04-11T06:40:08.206Z,99.90
2023-04-11T06:42:35.147Z,99.90
2023-04-11T06:45:02.125Z,99.90
2023-04-11T06:47:29.232Z,99.90
2023-04-11T06:49:56.467Z,99.90
2023-04-11T06:52:23.410Z,99.90
2023-04-11T06:54:50.446Z,99.90
2023-04-11T06:57:18.126Z,99.90
2023-04-11T06:59:45.164Z,99.90
2023-04-11T07:02:12.390Z,99.90
2023-04-11T07:04:39.505Z,99.90
2023-04-11T07:07:06.843Z,99.90
2023-04-11T07:09:33.960Z,99.90
2023-04-11T07:12:01.802Z,99.90
2023-04-11T07:14:28.829Z,99.90
2023-04-11T07:19:28.229Z,99.90
2023-04-11T07:21:55.262Z,99.90
2023-04-11T07:24:26.199Z,99.90
2023-04-11T07:26:53.870Z,99.90
2023-04-11T07:29:21.764Z,99.90
2023-04-11T07:31:49.727Z,99.90
2023-04-11T07:34:16.891Z,99.90
2023-04-11T07:36:43.830Z,99.90
2023-04-11T07:39:12.378Z,99.90
2023-04-11T07:41:39.689Z,99.90
2023-04-11T07:44:10.072Z,99.90
2023-04-11T07:46:36.994Z,99.90
2023-04-11T07:49:03.995Z,99.90
2023-04-11T07:51:31.399Z,99.90
2023-04-11T07:53:58.645Z,99.90
2023-04-11T07:56:26.073Z,99.90
2023-04-11T07:58:53.094Z,99.90
2023-04-11T08:01:25.091Z,99.90
2023-04-11T08:03:54.170Z,99.90
2023-04-11T08:06:21.611Z,99.90
2023-04-11T08:08:49.480Z,99.90
2023-04-11T08:11:16.777Z,99.90
2023-04-11T08:13:46.978Z,99.90
2023-04-11T08:16:15.909Z,99.90
2023-04-11T08:18:43.048Z,99.90
2023-04-11T08:21:13.568Z,99.90
2023-04-11T08:23:42.461Z,99.90
2023-04-11T08:26:10.797Z,99.90
2023-04-11T08:28:37.800Z,99.90
2023-04-11T08:31:05.768Z,99.90
2023-04-11T08:33:33.520Z,99.90
2023-04-11T08:36:00.542Z,99.90
2023-04-11T08:38:27.526Z,99.90
2023-04-11T08:40:55.363Z,99.90
2023-04-11T08:43:23.251Z,99.90
2023-04-11T08:45:50.305Z,99.90
2023-04-11T08:48:17.490Z,99.70
2023-04-11T08:50:44.940Z,99.90
2023-04-11T08:53:12.355Z,99.90
2023-04-11T08:55:47.096Z,99.90
2023-04-11T08:58:14.673Z,99.90
2023-04-11T09:00:41.663Z,98.30
2023-04-11T09:03:10.493Z,98.30
2023-04-11T09:05:44.710Z,98.90
2023-04-11T09:08:13.618Z,99.90
2023-04-11T09:10:42.987Z,99.90
2023-04-11T09:13:22.886Z,98.30
2023-04-11T09:16:10.943Z,99.60
2023-04-11T09:18:46.694Z,98.60
2023-04-11T09:21:15.853Z,99.50
2023-04-11T09:23:43.756Z,99.50
2023-04-11T09:26:12.331Z,97.40
2023-04-11T09:28:42.971Z,97.70
2023-04-11T09:31:13.233Z,98.00
2023-04-11T09:33:53.472Z,97.60
2023-04-11T09:36:22.902Z,95.70
2023-04-11T09:38:50.094Z,96.80
2023-04-11T09:41:31.445Z,96.50
2023-04-11T09:43:59.086Z,97.60
2023-04-11T09:46:26.362Z,97.20
2023-04-11T09:48:57.351Z,96.00
2023-04-11T09:53:55.744Z,96.20
2023-04-11T09:56:26.643Z,95.80
2023-04-11T09:58:54.807Z,94.00
2023-04-11T10:01:24.480Z,94.80
2023-04-11T10:03:51.548Z,95.10
2023-04-11T10:06:34.394Z,95.00
2023-04-11T10:09:13.004Z,95.20
2023-04-11T10:11:44.185Z,94.90
2023-04-11T10:14:39.056Z,93.90
2023-04-11T10:17:32.496Z,94.10
2023-04-11T10:19:59.533Z,93.10
2023-04-11T10:22:41.867Z,93.50
2023-04-11T10:25:22.229Z,93.70
2023-04-11T10:27:54.003Z,93.80
2023-04-11T10:30:41.145Z,93.00
2023-04-11T10:33:17.721Z,93.30
2023-04-11T10:36:10.536Z,93.80
2023-04-11T10:38:43.909Z,91.00
2023-04-11T10:41:22.979Z,92.20
2023-04-11T10:43:50.292Z,91.30
2023-04-11T10:46:22.241Z,88.10
2023-04-11T10:49:02.174Z,90.20
2023-04-11T10:51:33.483Z,92.00
2023-04-11T10:54:01.257Z,91.80
2023-04-11T10:56:46.925Z,90.60
2023-04-11T10:59:32.166Z,90.60
2023-04-11T11:02:01.623Z,89.80
2023-04-11T11:04:35.531Z,90.70
2023-04-11T11:07:04.385Z,90.50
2023-04-11T11:09:32.347Z,90.00
2023-04-11T11:12:09.745Z,88.20
2023-04-11T11:14:37.523Z,87.80
2023-04-11T11:17:05.020Z,85.80
2023-04-11T11:19:32.503Z,85.10
2023-04-11T11:22:04.356Z,83.30
2023-04-11T11:24:31.601Z,83.30
2023-04-11T11:26:59.020Z,83.60
2023-04-11T11:29:40.703Z,80.90
2023-04-11T11:32:07.761Z,80.00
2023-04-11T11:34:35.545Z,81.60
2023-04-11T11:37:06.850Z,76.70
2023-04-11T11:39:35.595Z,78.00
2023-04-11T11:42:03.530Z,75.10
2023-04-11T11:44:31.272Z,78.10
2023-04-11T11:47:18.132Z,77.50
2023-04-11T11:49:55.632Z,74.30
2023-04-11T11:52:36.715Z,75.50
2023-04-11T11:55:08.200Z,77.80
2023-04-11T11:57:37.590Z,75.00
2023-04-11T12:00:10.357Z,76.70
2023-04-11T12:02:39.498Z,78.50
2023-04-11T12:05:07.889Z,78.60
2023-04-11T12:07:37.948Z,76.20
2023-04-11T12:10:11.887Z,76.50
2023-04-11T12:12:42.084Z,71.80
2023-04-11T12:15:16.768Z,73.90
2023-04-11T12:17:48.070Z,73.70
2023-04-11T12:20:15.897Z,74.50
2023-04-11T12:22:42.916Z,75.90
2023-04-11T12:25:12.105Z,76.70
2023-04-11T12:27:41.086Z,76.40
2023-04-11T12:30:09.418Z,75.10
2023-04-11T12:32:37.088Z,72.80
2023-04-11T12:35:06.062Z,72.40
2023-04-11T12:37:34.229Z,74.60
2023-04-11T12:40:01.647Z,75.70
2023-04-11T12:42:28.676Z,74.60
2023-04-11T12:44:55.679Z,74.50
2023-04-11T13:48:43.849Z,67.80
2023-04-11T13:51:13.716Z,66.30
2023-04-11T13:53:40.866Z,67.20
2023-04-11T13:56:12.410Z,68.80
2023-04-11T13:58:39.461Z,68.50
2023-04-11T14:01:06.942Z,69.20
2023-04-11T14:03:34.270Z,70.70
2023-04-11T14:06:01.783Z,69.30
2023-04-11T14:08:29.279Z,69.50
2023-04-11T14:10:56.649Z,68.90
2023-04-11T14:13:23.758Z,68.00
2023-04-11T14:16:04.748Z,67.00
2023-04-11T14:18:34.763Z,66.20
2023-04-11T14:21:02.040Z,67.80
2023-04-11T14:23:29.667Z,68.60
2023-04-11T14:25:56.882Z,69.00
2023-04-11T14:28:26.420Z,66.60
2023-04-11T14:30:56.559Z,68.50
2023-04-11T14:33:23.776Z,68.20
2023-04-11T14:35:51.150Z,67.70
2023-04-11T14:38:18.196Z,69.60
2023-04-11T14:40:45.260Z,68.30
2023-04-11T14:43:12.245Z,68.00
2023-04-11T14:45:39.459Z,69.60
2023-04-11T14:48:06.803Z,69.30
2023-04-11T14:50:34.053Z,71.50
2023-04-11T14:53:01.261Z,72.30
2023-04-11T14:55:28.243Z,72.40
2023-04-11T14:57:56.686Z,72.20
2023-04-11T15:00:25.180Z,72.00
2023-04-11T15:02:54.820Z,72.30
2023-04-11T15:05:23.403Z,71.10
2023-04-11T15:07:51.994Z,72.30
2023-04-11T15:10:22.527Z,70.30
2023-04-11T15:12:50.079Z,72.50
2023-04-11T15:15:17.186Z,72.80
2023-04-11T15:17:46.484Z,73.90
2023-04-11T15:20:17.420Z,74.00
2023-04-11T15:22:45.276Z,75.40
2023-04-11T15:25:14.661Z,75.20
2023-04-11T15:27:42.450Z,76.10
2023-04-11T15:30:10.457Z,75.10
2023-04-11T15:32:43.882Z,74.60
2023-04-11T15:35:11.589Z,75.00
2023-04-11T15:37:38.492Z,74.90
2023-04-11T15:40:12.292Z,74.10
2023-04-11T15:42:39.420Z,74.90
2023-04-11T15:45:07.218Z,74.00
2023-04-11T15:47:34.142Z,71.80
2023-04-11T15:50:04.126Z,74.10
2023-04-11T15:52:31.071Z,73.80
2023-04-11T15:54:58.081Z,73.00
2023-04-11T15:57:26.541Z,73.20
2023-04-11T15:59:53.467Z,73.00
2023-04-11T16:02:20.497Z,74.00
2023-04-11T16:04:51.269Z,73.00
2023-04-11T16:07:20.216Z,73.90
2023-04-11T16:09:47.189Z,73.10
2023-04-11T16:12:14.324Z,73.40
2023-04-11T16:14:41.287Z,72.60
2023-04-11T16:17:11.040Z,73.70
2023-04-11T16:19:37.991Z,73.60
2023-04-11T16:22:05.001Z,73.10
2023-04-11T16:24:32.022Z,73.80
2023-04-11T16:26:58.905Z,75.00
2023-04-11T16:29:25.899Z,74.80
2023-04-11T16:31:52.960Z,75.50
2023-04-11T16:34:20.021Z,76.00
2023-04-11T16:36:47.120Z,76.90
2023-04-11T16:39:14.107Z,77.40
2023-04-11T16:41:41.195Z,77.50
2023-04-11T16:44:18.216Z,78.00
2023-04-11T16:46:45.365Z,78.50
2023-04-11T16:49:12.323Z,78.50
2023-04-11T16:51:39.265Z,78.50
2023-04-11T16:54:09.947Z,79.00
2023-04-11T16:56:37.447Z,78.90
2023-04-11T16:59:05.158Z,78.90
2023-04-11T17:01:32.547Z,78.80
2023-04-11T17:04:01.408Z,78.90
2023-04-11T17:06:28.758Z,79.10
2023-04-11T17:08:57.659Z,79.50
2023-04-11T17:11:25.283Z,80.30
2023-04-11T17:13:58.517Z,80.00
2023-04-11T17:16:26.572Z,80.30
2023-04-11T17:18:53.613Z,80.60
2023-04-11T17:21:20.715Z,81.60
2023-04-11T17:23:47.874Z,82.20
2023-04-11T17:26:16.173Z,83.60
2023-04-11T17:28:44.905Z,84.00
2023-04-11T17:31:16.357Z,85.00
2023-04-11T17:33:43.494Z,85.70
2023-04-11T17:36:12.553Z,86.30
2023-04-11T17:38:40.671Z,86.50
2023-04-11T17:41:14.438Z,87.20
2023-04-11T17:43:43.410Z,87.90
2023-04-11T17:46:10.518Z,88.50
2023-04-11T17:48:37.855Z,89.70
2023-04-11T17:51:05.810Z,89.70
2023-04-11T17:53:33.499Z,90.10
2023-04-11T17:56:04.765Z,90.30
2023-04-11T17:58:32.114Z,90.70
2023-04-11T18:00:59.674Z,91.00
2023-04-11T18:03:26.850Z,91.10
2023-04-11T18:05:54.753Z,91.40
2023-04-11T18:08:32.828Z,91.50
2023-04-11T18:11:09.809Z,91.80
2023-04-11T18:13:36.786Z,92.10
2023-04-11T18:16:04.346Z,92.20
2023-04-11T18:18:31.367Z,92.40
2023-04-11T18:21:06.671Z,92.60
2023-04-11T18:23:34.782Z,92.70
2023-04-11T18:26:01.735Z,92.60
2023-04-11T18:28:29.109Z,92.70
2023-04-11T18:30:56.458Z,92.80
2023-04-11T18:33:23.483Z,93.00
2023-04-11T18:35:50.515Z,93.10
2023-04-11T18:38:17.790Z,93.20
2023-04-11T18:40:44.802Z,93.40
2023-04-11T18:43:11.989Z,94.00
2023-04-11T18:45:39.446Z,94.20
2023-04-11T18:48:07.345Z,94.60
2023-04-11T18:50:38.953Z,94.90
2023-04-11T18:53:10.138Z,95.20
2023-04-11T18:55:40.686Z,95.80
2023-04-11T18:58:09.626Z,96.30
2023-04-11T19:00:39.115Z,96.60
2023-04-11T19:03:14.837Z,97.20
2023-04-11T19:05:43.834Z,97.10
2023-04-11T19:08:11.234Z,97.40
2023-04-11T19:10:38.397Z,97.80
2023-04-11T19:13:06.488Z,98.40
2023-04-11T19:15:33.681Z,98.30
2023-04-11T19:18:02.000Z,98.70
2023-04-11T19:20:29.729Z,99.30
2023-04-11T19:22:57.113Z,99.70
2023-04-11T19:25:24.497Z,99.90
2023-04-11T19:27:51.684Z,99.90
2023-04-11T19:30:18.628Z,99.90
2023-04-11T19:32:47.686Z,99.90
2023-04-11T19:35:15.209Z,99.90
2023-04-11T19:37:42.840Z,99.90
2023-04-11T19:40:19.259Z,99.90
2023-04-11T19:42:46.307Z,99.90
2023-04-11T19:45:13.406Z,99.90
2023-04-11T19:47:41.881Z,99.90
2023-04-11T19:50:14.348Z,99.90
2023-04-11T19:52:42.895Z,99.90
2023-04-11T19:55:11.570Z,99.90
2023-04-11T19:57:39.081Z,99.90
2023-04-11T20:00:17.616Z,99.90
2023-04-11T20:02:46.411Z,99.90
2023-04-11T20:07:58.820Z,99.90
2023-04-11T20:10:25.818Z,99.90
2023-04-11T20:12:53.087Z,99.90
2023-04-11T20:15:20.806Z,99.90
2023-04-11T20:17:48.088Z,99.90
2023-04-11T20:20:15.868Z,99.90
2023-04-11T20:22:44.912Z,99.90
2023-04-11T20:25:12.186Z,99.90
2023-04-11T20:27:40.008Z,99.90
2023-04-11T20:30:10.938Z,99.90
2023-04-11T20:32:38.438Z,99.90
2023-04-11T20:35:06.089Z,99.90
2023-04-11T20:37:34.647Z,99.90
2023-04-11T20:40:02.759Z,99.90
2023-04-11T20:42:31.792Z,99.90
2023-04-11T20:45:07.264Z,99.90
2023-04-11T20:47:37.747Z,99.90
2023-04-11T20:50:06.204Z,99.90
2023-04-11T20:52:33.669Z,99.90
2023-04-11T20:55:01.579Z,99.90
2023-04-11T20:57:30.401Z,99.90
2023-04-11T20:59:57.943Z,99.90
2023-04-11T21:02:26.191Z,99.90
2023-04-11T21:04:53.588Z,99.90
2023-04-11T21:07:20.955Z,99.90
2023-04-11T21:09:48.805Z,99.90
2023-04-11T21:12:16.350Z,99.90
2023-04-11T21:14:43.280Z,99.90
2023-04-11T21:17:10.629Z,99.90
2023-04-11T21:19:38.003Z,99.90
2023-04-11T21:22:05.928Z,99.90
2023-04-11T21:24:33.753Z,99.90
2023-04-11T21:27:01.464Z,99.90
2023-04-11T21:29:29.038Z,99.90
2023-04-11T21:31:55.972Z,99.90
2023-04-11T21:34:22.931Z,99.90
2023-04-11T21:36:50.622Z,99.90
2023-04-11T21:39:17.622Z,99.90
2023-04-11T21:41:44.607Z,99.90
2023-04-11T21:44:13.461Z,99.90
2023-04-11T21:46:40.673Z,99.90
2023-04-11T21:49:07.698Z,99.90
2023-04-11T21:51:34.694Z,99.90
2023-04-11T21:54:04.407Z,99.90
2023-04-11T21:56:31.377Z,99.90
2023-04-11T21:58:58.496Z,99.90
2023-04-11T22:01:25.621Z,99.90
2023-04-11T22:03:52.794Z,99.90
2023-04-11T22:06:19.935Z,99.90
2023-04-11T22:08:50.609Z,99.90
2023-04-11T22:11:18.252Z,99.90
2023-04-11T22:13:46.575Z,99.90
2023-04-11T22:16:14.418Z,99.90
2023-04-11T22:18:47.528Z,99.90
2023-04-11T22:21:21.057Z,99.90
2023-04-11T22:23:50.110Z,99.90
2023-04-11T22:26:17.540Z,99.90
2023-04-11T22:28:45.530Z,99.90
2023-04-11T22:31:13.770Z,99.90
2023-04-11T22:33:41.446Z,99.90
2023-04-11T22:36:11.294Z,99.90
2023-04-11T22:38:38.384Z,99.90
2023-04-11T22:41:05.541Z,99.90
2023-04-11T22:43:33.390Z,99.90
2023-04-11T22:46:00.497Z,99.90
2023-04-11T22:48:30.363Z,99.90
2023-04-11T22:50:59.599Z,99.90
2023-04-11T22:53:26.585Z,99.90
2023-04-11T22:55:53.536Z,99.90
2023-04-11T22:58:20.673Z,99.90
2023-04-11T23:00:47.892Z,99.90
2023-04-11T23:03:15.660Z,99.90
2023-04-11T23:05:42.754Z,99.90
2023-04-11T23:08:10.132Z,99.90
2023-04-11T23:10:39.470Z,99.90
2023-04-11T23:13:07.154Z,99.90
2023-04-11T23:15:34.134Z,99.90
2023-04-11T23:18:01.105Z,99.90
2023-04-11T23:20:28.035Z,99.90
2023-04-11T23:22:55.509Z,99.90
2023-04-11T23:25:22.639Z,99.90
2023-04-11T23:27:49.557Z,99.90
2023-04-11T23:30:17.666Z,99.90
2023-04-11T23:32:44.790Z,99.90
2023-04-11T23:35:11.949Z,99.90
2023-04-11T23:37:38.931Z,99.90
2023-04-11T23:40:11.036Z,99.90
2023-04-11T23:42:38.898Z,99.90
2023-04-11T23:45:07.310Z,99.90
2023-04-11T23:47:34.937Z,99.90
2023-04-11T23:50:02.929Z,99.90
2023-04-11T23:52:30.528Z,99.90
2023-04-11T23:54:58.506Z,99.90
2023-04-11T23:57:25.518Z,99.90
2023-04-11T23:59:52.534Z,99.90
